Time;durP1;ratioP1;P1;durP2;ratioP2;P2;SDS_P1;SDS_P2;PMS_P1;PMS_P2;Temp;Humidity;BMP_temperature;BMP_pressure;BME280_temperature;BME280_humidity;BME280_pressure;Samples;Min_cycle;Max_cycle;Signal;HPM_P1;HPM_P2
2023/01/14 00:01:15;;;;;;;26.98;12.95;;;;;;;12.36;59.49;98320.84;5323822;26;20556;-82
2023/01/14 00:03:42;;;;;;;29.75;14.55;;;;;;;12.09;59.45;98325.50;5323063;27;20412;-82
2023/01/14 00:06:14;;;;;;;24.98;12.05;;;;;;;12.03;60.32;98325.81;5324536;26;20394;-81
2023/01/14 00:08:42;;;;;;;23.50;11.05;;;;;;;12.20;60.06;98330.19;5324009;27;20407;-82
2023/01/14 00:11:11;;;;;;;22.65;11.98;;;;;;;11.57;61.96;98332.91;5322892;27;20751;-82
2023/01/14 00:13:39;;;;;;;26.95;12.15;;;;;;;11.46;63.16;98324.75;5322958;27;20106;-82
2023/01/14 00:16:09;;;;;;;21.45;11.38;;;;;;;12.14;61.52;98328.75;5324031;26;20044;-82
2023/01/14 00:18:36;;;;;;;21.27;10.10;;;;;;;12.41;59.50;98327.50;5324204;26;20113;-82
2023/01/14 00:21:14;;;;;;;22.40;11.57;;;;;;;12.42;59.25;98325.75;5324191;26;20396;-82
2023/01/14 00:23:41;;;;;;;21.98;11.05;;;;;;;11.38;63.32;98326.81;5323905;26;20052;-82
2023/01/14 00:26:16;;;;;;;23.62;10.77;;;;;;;11.21;62.91;98338.69;5323878;26;20044;-82
2023/01/14 00:28:50;;;;;;;23.92;11.25;;;;;;;10.72;66.03;98330.31;5322949;27;20115;-82
2023/01/14 00:31:20;;;;;;;24.20;11.70;;;;;;;11.17;64.34;98337.16;5322515;27;20115;-82
2023/01/14 00:33:47;;;;;;;23.38;10.45;;;;;;;11.42;62.56;98336.97;5324098;26;20053;-82
2023/01/14 00:36:16;;;;;;;21.50;10.40;;;;;;;11.30;62.49;98335.75;5323811;26;20071;-82
2023/01/14 00:38:44;;;;;;;20.58;9.68;;;;;;;11.45;62.57;98341.16;5322882;27;20060;-82
2023/01/14 00:41:13;;;;;;;20.92;8.93;;;;;;;11.37;61.42;98336.31;5324316;26;20057;-82
2023/01/14 00:43:47;;;;;;;19.55;9.07;;;;;;;10.76;63.48;98343.94;5322126;27;20510;-82
2023/01/14 00:46:19;;;;;;;18.45;8.27;;;;;;;11.00;63.38;98350.72;5324426;26;20057;-82
2023/01/14 00:48:46;;;;;;;15.88;7.37;;;;;;;10.94;62.78;98345.78;5322953;27;20085;-81
2023/01/14 00:51:14;;;;;;;15.85;7.15;;;;;;;10.55;63.99;98343.03;5323807;26;20060;-81
2023/01/14 00:53:42;;;;;;;17.10;6.90;;;;;;;10.85;62.32;98338.44;5324204;26;20731;-82
2023/01/14 00:56:09;;;;;;;13.88;6.43;;;;;;;10.85;61.63;98342.75;5324039;27;20044;-82
2023/01/14 00:58:36;;;;;;;14.73;5.80;;;;;;;11.32;59.83;98337.41;5323911;26;20071;-82
2023/01/14 01:01:04;;;;;;;13.32;5.12;;;;;;;10.88;60.82;98340.03;5322688;27;20103;-82
2023/01/14 01:03:31;;;;;;;13.05;4.78;;;;;;;10.80;61.65;98342.06;5322812;27;20119;-82
2023/01/14 01:05:58;;;;;;;10.93;4.37;;;;;;;9.99;63.79;98338.16;5323878;26;20094;-82
2023/01/14 01:08:25;;;;;;;11.77;4.55;;;;;;;9.59;66.50;98343.03;5324075;26;20110;-81
2023/01/14 01:10:53;;;;;;;10.15;4.05;;;;;;;9.99;65.55;98342.47;5323944;26;20473;-81
2023/01/14 01:13:22;;;;;;;12.77;3.95;;;;;;;9.98;65.58;98336.47;5322432;27;20404;-82
2023/01/14 01:15:50;;;;;;;9.13;3.70;;;;;;;9.49;68.25;98345.09;5322652;27;20105;-81
2023/01/14 01:18:18;;;;;;;9.00;3.60;;;;;;;10.09;65.40;98339.50;5322441;27;20678;-82
2023/01/14 01:20:45;;;;;;;10.82;3.60;;;;;;;9.97;65.26;98334.81;5322595;27;20072;-82
2023/01/14 01:23:13;;;;;;;12.27;3.78;;;;;;;9.76;66.72;98338.13;5324119;26;20048;-81
2023/01/14 01:25:40;;;;;;;7.20;2.75;;;;;;;10.42;64.21;98340.06;5323715;26;20308;-82
2023/01/14 01:28:07;;;;;;;10.40;3.15;;;;;;;9.79;64.91;98335.47;5322783;27;20110;-82
2023/01/14 01:30:35;;;;;;;9.85;3.28;;;;;;;10.06;64.44;98341.38;5324029;26;20068;-82
2023/01/14 01:33:02;;;;;;;8.82;3.25;;;;;;;10.19;64.51;98336.59;5323238;26;20056;-82
2023/01/14 01:35:28;;;;;;;9.27;3.37;;;;;;;9.59;66.37;98340.47;5324115;26;20312;-82
2023/01/14 01:37:55;;;;;;;8.77;3.08;;;;;;;9.14;68.27;98341.06;5323985;26;20064;-82
2023/01/14 01:40:22;;;;;;;;;;;;;;;9.68;66.22;98337.59;5323792;26;20075;-82
2023/01/14 01:42:55;;;;;;;8.90;2.85;;;;;;;9.76;66.18;98335.56;5324198;26;19964;-82
2023/01/14 01:45:27;;;;;;;8.68;2.80;;;;;;;9.84;65.38;98333.56;5324130;26;20045;-82
2023/01/14 01:48:22;;;;;;;6.62;2.53;;;;;;;8.92;68.44;98331.47;5323929;26;20118;-82
2023/01/14 01:50:56;;;;;;;7.93;2.60;;;;;;;10.02;64.58;98337.22;5323845;26;20056;-81
2023/01/14 01:53:25;;;;;;;6.60;2.40;;;;;;;9.73;65.83;98331.34;5322140;27;20056;-82
2023/01/14 01:55:54;;;;;;;7.03;2.37;;;;;;;9.60;65.53;98332.69;5323827;27;20045;-82
2023/01/14 01:58:22;;;;;;;7.60;2.37;;;;;;;9.46;65.58;98338.31;5322552;27;20094;-82
2023/01/14 02:00:48;;;;;;;8.52;2.35;;;;;;;9.79;64.26;98333.75;5323374;26;20064;-82
2023/01/14 02:03:35;;;;;;;8.40;2.17;;;;;;;10.06;63.45;98339.63;5324029;26;20112;-81
2023/01/14 02:06:02;;;;;;;6.95;2.17;;;;;;;9.76;63.84;98351.03;5323958;26;20095;-81
2023/01/14 02:08:30;;;;;;;4.95;1.90;;;;;;;9.70;64.75;98346.94;5323656;26;20067;-82
2023/01/14 02:10:57;;;;;;;6.15;2.05;;;;;;;9.58;64.91;98347.34;5323524;26;20052;-81
2023/01/14 02:13:47;;;;;;;;;;;;;;;9.73;63.37;98348.56;5324140;26;20414;-82
2023/01/14 02:16:53;;;;;;;6.15;2.12;;;;;;;9.91;63.23;98347.09;5311787;27;19960;-82
2023/01/14 02:19:50;;;;;;;6.70;2.03;;;;;;;9.75;63.73;98350.19;5291995;26;20117;-81
2023/01/14 02:22:43;;;;;;;8.57;2.25;;;;;;;9.93;62.33;98348.72;5323447;26;20412;-82
2023/01/14 02:25:19;;;;;;;6.30;2.20;;;;;;;10.31;60.50;98344.75;5323767;26;20048;-82
2023/01/14 02:28:05;;;;;;;7.10;2.20;;;;;;;10.35;60.07;98364.41;5323788;26;20045;-82
2023/01/14 02:30:38;;;;;;;8.15;2.03;;;;;;;9.63;63.19;98354.91;5321830;27;20068;-81
2023/01/14 02:33:14;;;;;;;8.25;2.20;;;;;;;10.02;62.15;98361.28;5321895;27;20090;-82
2023/01/14 02:35:46;;;;;;;7.18;2.10;;;;;;;10.42;59.85;98354.72;5323343;27;20052;-82
2023/01/14 02:38:25;;;;;;;6.45;2.00;;;;;;;9.68;62.52;98350.47;5323699;26;20040;-81
2023/01/14 02:41:09;;;;;;;4.45;2.20;;;;;;;9.88;61.13;98354.91;5323520;26;20064;-81
2023/01/14 02:44:07;;;;;;;6.43;1.70;;;;;;;9.67;61.69;98348.75;5323320;26;20056;-82
2023/01/14 02:46:58;;;;;;;4.65;1.70;;;;;;;9.66;60.72;98350.50;5322476;27;20430;-81
2023/01/14 02:49:32;;;;;;;4.85;1.50;;;;;;;9.40;61.77;98363.41;5322408;27;20048;-82
2023/01/14 02:51:59;;;;;;;4.37;1.65;;;;;;;9.45;61.52;98351.22;5323124;27;20057;-82
2023/01/14 02:54:27;;;;;;;3.55;1.60;;;;;;;9.30;61.97;98352.56;5324676;26;20378;-81
2023/01/14 02:56:58;;;;;;;8.30;1.58;;;;;;;9.83;59.92;98357.66;5324247;26;20328;-82
2023/01/14 02:59:43;;;;;;;4.65;1.35;;;;;;;9.71;60.94;98358.09;5324752;26;20045;-82
2023/01/14 03:02:49;;;;;;;6.97;1.77;;;;;;;10.00;59.54;98364.81;5305010;27;20106;-81
2023/01/14 03:06:02;;;;;;;6.15;1.87;;;;;;;9.26;62.22;98364.72;5324169;27;20083;-82
2023/01/14 03:08:37;;;;;;;4.75;1.58;;;;;;;9.45;62.13;98367.50;5324585;27;20056;-81
2023/01/14 03:11:07;;;;;;;6.03;1.62;;;;;;;9.22;62.13;98360.53;5322596;27;20045;-82
2023/01/14 03:14:00;;;;;;;4.03;1.67;;;;;;;9.17;62.62;98366.75;5324659;26;20061;-81
2023/01/14 03:16:30;;;;;;;5.00;1.65;;;;;;;8.70;64.74;98375.03;5324627;26;20427;-82
2023/01/14 03:19:05;;;;;;;7.28;1.52;;;;;;;10.07;60.41;98374.81;5322656;27;20116;-82
2023/01/14 03:21:35;;;;;;;5.50;1.92;;;;;;;9.60;61.09;98371.31;5324344;27;20063;-81
2023/01/14 03:24:07;;;;;;;4.70;1.60;;;;;;;9.48;61.97;98364.84;5323180;27;20065;-81
2023/01/14 03:26:36;;;;;;;6.82;1.70;;;;;;;9.79;60.69;98374.97;5322812;27;20118;-82
2023/01/14 03:29:08;;;;;;;4.60;1.50;;;;;;;9.64;61.67;98383.19;5323148;27;20052;-81
2023/01/14 03:31:38;;;;;;;5.22;2.00;;;;;;;8.98;63.50;98377.63;5322670;27;20052;-81
2023/01/14 03:34:09;;;;;;;5.30;1.90;;;;;;;9.62;62.10;98389.31;5322946;27;20060;-81
2023/01/14 03:36:37;;;;;;;6.32;1.75;;;;;;;9.75;61.22;98383.69;5323145;27;20556;-82
2023/01/14 03:39:13;;;;;;;6.75;1.75;;;;;;;9.06;63.94;98394.56;5322690;27;20716;-82
2023/01/14 03:45:01;;;;;;;6.65;2.12;;;;;;;9.15;63.89;98397.69;5324530;26;20121;-81
2023/01/14 03:47:31;;;;;;;4.12;1.70;;;;;;;9.44;62.93;98394.16;5318772;27;20048;-82
2023/01/14 03:50:01;;;;;;;6.43;1.80;;;;;;;9.22;64.04;98398.31;5322958;27;20056;-81
2023/01/14 03:52:38;;;;;;;5.78;1.75;;;;;;;8.89;65.20;98403.62;5322566;27;20048;-82
2023/01/14 03:55:30;;;;;;;5.43;1.83;;;;;;;9.15;64.51;98409.72;5324606;26;20426;-81
2023/01/14 03:58:02;;;;;;;6.53;1.42;;;;;;;8.71;66.15;98411.88;5324494;26;20063;-82
2023/01/14 04:00:57;;;;;;;4.68;1.62;;;;;;;8.24;67.97;98424.34;5322138;27;20049;-82
2023/01/14 04:03:25;;;;;;;7.25;2.20;;;;;;;9.01;65.58;98415.28;5324353;26;20049;-81
2023/01/14 04:05:53;;;;;;;5.78;1.77;;;;;;;8.60;67.54;98414.75;5323098;27;20129;-82
2023/01/14 04:08:21;;;;;;;6.37;1.98;;;;;;;8.94;65.83;98416.37;5322577;27;20548;-82
2023/01/14 04:10:48;;;;;;;7.40;2.12;;;;;;;8.11;68.71;98413.56;5322686;26;20053;-82
2023/01/14 04:16:01;;;;;;;4.85;1.83;;;;;;;8.89;65.14;98411.34;5324513;26;20462;-82
2023/01/14 04:18:28;;;;;;;6.22;1.77;;;;;;;9.00;65.05;98413.59;5324370;26;20120;-81
2023/01/14 04:20:55;;;;;;;6.78;2.03;;;;;;;8.68;66.63;98425.69;5323805;26;20057;-82
2023/01/14 04:23:22;;;;;;;5.57;1.75;;;;;;;8.87;65.44;98422.56;5324474;26;20048;-81
2023/01/14 04:25:57;;;;;;;4.97;1.80;;;;;;;8.22;67.83;98432.97;5324373;26;20116;-81
2023/01/14 04:28:25;;;;;;;7.45;2.12;;;;;;;8.68;66.62;98448.00;5324087;26;20366;-82
2023/01/14 04:30:52;;;;;;;4.43;1.48;;;;;;;8.79;65.27;98440.81;5324151;26;20102;-81
2023/01/14 04:33:20;;;;;;;4.93;1.67;;;;;;;9.22;63.13;98444.66;5322595;27;20494;-81
2023/01/14 04:35:48;;;;;;;7.53;1.90;;;;;;;9.37;62.96;98443.38;5323961;26;20117;-82
2023/01/14 04:38:16;;;;;;;6.07;1.70;;;;;;;9.25;63.50;98447.13;5324244;26;20116;-81
2023/01/14 04:40:43;;;;;;;5.80;1.75;;;;;;;8.77;64.95;98445.16;5322756;27;20056;-82
2023/01/14 04:43:10;;;;;;;6.80;1.70;;;;;;;8.62;65.88;98455.91;5323918;26;20426;-82
2023/01/14 04:45:37;;;;;;;5.43;1.80;;;;;;;8.65;65.60;98455.81;5324340;26;20167;-81
2023/01/14 04:48:03;;;;;;;;;;;;;;;9.04;64.46;98458.09;5324600;26;20056;-81
2023/01/14 04:50:30;;;;;;;7.90;2.45;;;;;;;8.96;64.02;98460.91;5323798;26;19964;-81
2023/01/14 04:53:08;;;;;;;6.45;2.08;;;;;;;8.29;66.68;98462.75;5324385;26;20049;-82
2023/01/14 04:55:39;;;;;;;6.32;1.92;;;;;;;8.70;65.52;98464.22;5323995;26;20418;-82
2023/01/14 04:58:08;;;;;;;4.50;1.70;;;;;;;8.81;64.63;98461.34;5324262;27;20110;-82
2023/01/14 05:00:36;;;;;;;4.45;1.73;;;;;;;8.42;65.44;98451.31;5323965;26;20048;-81
2023/01/14 05:03:04;;;;;;;3.90;1.60;;;;;;;8.53;65.22;98463.88;5323796;26;20114;-82
2023/01/14 05:05:31;;;;;;;3.55;1.48;;;;;;;8.82;64.39;98470.75;5324276;26;20424;-81
2023/01/14 05:07:58;;;;;;;6.65;2.45;;;;;;;9.19;63.19;98470.50;5324254;26;20391;-81
2023/01/14 05:10:26;;;;;;;7.07;1.70;;;;;;;8.81;63.51;98469.91;5322276;27;20071;-81
2023/01/14 05:13:00;;;;;;;5.00;1.60;;;;;;;9.20;62.58;98473.03;5323893;26;20052;-81
2023/01/14 05:15:36;;;;;;;5.75;1.92;;;;;;;8.98;63.25;98475.41;5324215;26;20071;-81
2023/01/14 05:18:04;;;;;;;4.83;1.90;;;;;;;9.99;59.59;98484.25;5323860;26;20056;-82
2023/01/14 05:20:31;;;;;;;6.55;1.85;;;;;;;10.06;59.10;98485.75;5324007;26;20067;-81
2023/01/14 05:23:00;;;;;;;3.35;1.20;;;;;;;9.37;60.28;98482.00;5324113;26;20048;-81
2023/01/14 05:25:29;;;;;;;4.10;1.50;;;;;;;9.63;60.23;98487.16;5323712;26;20056;-82
2023/01/14 05:28:00;;;;;;;6.20;1.42;;;;;;;9.49;60.73;98477.28;5322815;27;20122;-81
2023/01/14 05:30:27;;;;;;;5.40;1.50;;;;;;;9.63;60.90;98492.31;5324050;26;20053;-81
2023/01/14 05:32:54;;;;;;;3.67;1.62;;;;;;;9.96;59.17;98495.53;5322084;27;20048;-81
2023/01/14 05:35:22;;;;;;;5.43;1.70;;;;;;;10.06;58.86;98489.16;5324080;26;20052;-81
2023/01/14 05:37:50;;;;;;;6.18;1.55;;;;;;;9.92;58.87;98493.09;5323753;26;20425;-82
2023/01/14 05:40:17;;;;;;;5.57;2.08;;;;;;;9.43;61.22;98503.22;5323956;26;20110;-81
2023/01/14 05:45:48;;;;;;;4.60;1.67;;;;;;;8.67;64.61;98508.88;5323758;26;20453;-82
2023/01/14 05:48:21;;;;;;;6.62;2.12;;;;;;;9.18;63.42;98516.00;5322928;27;20427;-82
2023/01/14 05:50:57;;;;;;;5.90;1.77;;;;;;;8.59;65.99;98515.97;5323887;26;20056;-81
2023/01/14 05:53:25;;;;;;;5.90;2.00;;;;;;;9.16;63.83;98516.94;5323659;26;20529;-82
2023/01/14 05:55:52;;;;;;;5.37;1.90;;;;;;;9.24;63.17;98522.69;5324006;26;20395;-81
2023/01/14 05:58:20;;;;;;;6.18;1.80;;;;;;;9.21;63.03;98526.22;5323900;26;20053;-81
2023/01/14 06:06:28;;;;;;;5.25;1.62;;;;;;;8.19;67.95;98534.16;5323644;26;20061;-82
2023/01/14 06:08:58;;;;;;;4.82;1.80;;;;;;;8.84;64.96;98533.31;5322643;27;20061;-81
2023/01/14 06:11:26;;;;;;;6.85;1.58;;;;;;;8.13;66.80;98542.00;5323698;26;20113;-81
2023/01/14 06:13:57;;;;;;;2.97;1.45;;;;;;;8.42;66.01;98543.88;5323345;26;20045;-82
2023/01/14 06:16:28;;;;;;;3.85;1.73;;;;;;;9.44;62.42;98546.13;5323881;26;20075;-81
2023/01/14 06:18:55;;;;;;;4.60;1.70;;;;;;;9.18;63.13;98553.78;5322379;27;20544;-81
2023/01/14 06:21:27;;;;;;;3.53;1.70;;;;;;;8.69;64.83;98542.28;5323214;26;20053;-82
2023/01/14 06:23:54;;;;;;;4.37;1.42;;;;;;;9.25;62.70;98539.81;5323960;26;20098;-82
2023/01/14 06:26:27;;;;;;;5.37;1.90;;;;;;;8.69;64.85;98537.13;5324795;26;20065;-81
2023/01/14 06:29:07;;;;;;;5.10;1.37;;;;;;;8.70;64.44;98542.25;5324524;26;20060;-82
2023/01/14 06:31:34;;;;;;;6.65;1.62;;;;;;;9.11;63.13;98544.53;5324714;26;20059;-81
2023/01/14 06:34:01;;;;;;;5.97;1.60;;;;;;;8.83;63.93;98539.34;5322729;27;20045;-82
2023/01/14 06:36:30;;;;;;;6.90;1.92;;;;;;;8.96;63.28;98543.25;5324709;26;20122;-82
2023/01/14 06:38:57;;;;;;;3.70;1.30;;;;;;;9.43;61.47;98541.88;5324664;26;20071;-81
2023/01/14 06:41:24;;;;;;;5.30;1.58;;;;;;;9.16;62.75;98545.28;5324046;26;20434;-82
2023/01/14 06:43:51;;;;;;;6.53;1.75;;;;;;;8.42;65.94;98548.19;5324859;26;20048;-82
2023/01/14 06:46:18;;;;;;;3.25;1.50;;;;;;;9.03;63.80;98539.59;5324752;26;20068;-82
2023/01/14 06:48:46;;;;;;;5.03;1.40;;;;;;;9.52;61.95;98548.47;5324254;26;20067;-82
2023/01/14 06:51:15;;;;;;;4.80;1.40;;;;;;;8.69;64.82;98545.69;5324467;26;20130;-82
2023/01/14 06:53:42;;;;;;;7.03;1.40;;;;;;;9.48;62.16;98550.31;5324620;27;20055;-81
2023/01/14 06:56:12;;;;;;;4.85;1.75;;;;;;;9.07;62.98;98554.09;5322863;27;20069;-82
2023/01/14 06:58:39;;;;;;;3.83;1.50;;;;;;;9.88;59.54;98551.63;5324712;26;20121;-82
2023/01/14 07:01:09;;;;;;;4.75;1.30;;;;;;;9.26;61.57;98562.13;5324468;26;20336;-82
2023/01/14 07:03:37;;;;;;;7.85;1.67;;;;;;;9.44;61.29;98571.03;5324274;26;20112;-82
2023/01/14 07:06:05;;;;;;;6.20;1.42;;;;;;;9.15;61.89;98566.75;5324569;26;20127;-82
2023/01/14 07:08:32;;;;;;;3.03;1.17;;;;;;;8.98;63.14;98572.38;5324554;26;20083;-81
2023/01/14 07:10:58;;;;;;;;;;;;;;;8.85;63.65;98573.59;5324360;26;20110;-82
2023/01/14 07:13:25;;;;;;;5.72;1.35;;;;;;;10.07;59.62;98569.94;5324604;26;20006;-82
2023/01/14 07:15:52;;;;;;;6.28;1.23;;;;;;;9.81;59.59;98573.34;5324318;26;20076;-82
2023/01/14 07:18:19;;;;;;;3.60;1.30;;;;;;;9.66;60.41;98558.34;5324524;26;20406;-81
2023/01/14 07:20:46;;;;;;;;;;;;;;;9.75;59.41;98560.63;5324810;26;20386;-82
2023/01/14 07:23:13;;;;;;;5.22;1.40;;;;;;;10.48;57.67;98563.44;5324269;26;19984;-82
2023/01/14 07:25:40;;;;;;;5.95;1.20;;;;;;;10.95;55.62;98569.53;5324547;27;20126;-82
2023/01/14 07:28:07;;;;;;;6.05;1.60;;;;;;;11.60;53.70;98573.16;5324602;27;20057;-82
2023/01/14 07:30:34;;;;;;;3.53;1.25;;;;;;;11.78;53.00;98568.97;5323989;26;20056;-82
2023/01/14 07:33:01;;;;;;;4.80;1.27;;;;;;;11.67;52.88;98565.97;5324197;26;20073;-82
2023/01/14 07:35:29;;;;;;;6.07;1.50;;;;;;;12.41;50.79;98568.16;5324433;26;20110;-82
2023/01/14 07:37:57;;;;;;;3.47;1.20;;;;;;;13.13;48.55;98566.78;5324005;26;20049;-82
2023/01/14 07:40:24;;;;;;;3.42;1.42;;;;;;;12.81;48.90;98566.47;5324407;26;20403;-82
2023/01/14 07:42:59;;;;;;;4.37;0.95;;;;;;;12.09;50.38;98578.97;5324383;26;20060;-82
2023/01/14 07:45:27;;;;;;;2.33;0.98;;;;;;;11.48;51.26;98584.78;5324331;26;20056;-82
2023/01/14 07:47:55;;;;;;;4.70;1.17;;;;;;;11.57;50.52;98579.25;5324476;26;20052;-81
2023/01/14 07:50:22;;;;;;;4.18;0.93;;;;;;;10.55;53.76;98585.56;5323113;27;20104;-81
2023/01/14 07:52:57;;;;;;;5.78;1.10;;;;;;;11.06;53.06;98583.75;5322495;27;20056;-82
2023/01/14 07:55:25;;;;;;;6.25;1.23;;;;;;;11.01;53.06;98589.94;5323034;27;20468;-82
2023/01/14 07:57:52;;;;;;;4.87;1.30;;;;;;;10.96;53.88;98597.03;5322972;27;20065;-82
2023/01/14 08:00:20;;;;;;;4.72;1.20;;;;;;;11.53;52.23;98594.94;5322582;27;20052;-82
2023/01/14 08:02:47;;;;;;;6.03;1.10;;;;;;;11.60;52.32;98593.81;5323006;27;20052;-82
2023/01/14 08:05:14;;;;;;;4.15;1.12;;;;;;;11.58;52.39;98596.44;5324060;26;20396;-82
2023/01/14 08:07:41;;;;;;;4.72;1.10;;;;;;;12.38;49.95;98596.75;5324427;27;20072;-82
2023/01/14 08:10:09;;;;;;;4.65;1.08;;;;;;;12.95;48.98;98604.69;5324273;26;20071;-82
2023/01/14 08:12:36;;;;;;;5.45;0.82;;;;;;;12.11;50.58;98600.44;5323836;26;20048;-82
2023/01/14 08:15:05;;;;;;;4.40;1.02;;;;;;;11.65;51.32;98607.41;5324333;26;20057;-82
2023/01/14 08:17:32;;;;;;;3.42;1.10;;;;;;;12.51;48.42;98606.59;5324308;26;20057;-82
2023/01/14 08:19:59;;;;;;;4.62;1.20;;;;;;;12.30;50.10;98609.16;5323788;26;20067;-82
2023/01/14 08:22:28;;;;;;;4.20;1.00;;;;;;;12.15;50.72;98620.97;5324089;26;20320;-82
2023/01/14 08:24:56;;;;;;;4.72;1.10;;;;;;;13.43;47.40;98619.03;5324385;26;20064;-82
2023/01/14 08:27:23;;;;;;;3.70;1.15;;;;;;;13.87;45.68;98616.97;5322557;27;20059;-82
2023/01/14 08:29:50;;;;;;;4.50;1.02;;;;;;;13.88;45.13;98618.66;5324342;27;20048;-82
2023/01/14 08:32:17;;;;;;;5.12;1.00;;;;;;;13.53;46.37;98618.53;5323826;26;20040;-82
2023/01/14 08:34:44;;;;;;;4.35;0.90;;;;;;;13.32;47.10;98609.16;5324020;26;20358;-82
2023/01/14 08:37:11;;;;;;;2.30;0.65;;;;;;;13.57;45.96;98624.41;5324321;27;20118;-82
2023/01/14 08:39:38;;;;;;;4.05;1.10;;;;;;;13.70;45.49;98625.53;5324332;26;20044;-82
2023/01/14 08:42:05;;;;;;;4.62;0.93;;;;;;;12.40;47.81;98625.16;5323742;26;20097;-82
2023/01/14 08:44:32;;;;;;;8.20;1.10;;;;;;;11.40;51.84;98622.16;5324187;26;20060;-82
2023/01/14 08:46:59;;;;;;;17.58;2.58;;;;;;;10.95;52.65;98630.63;5323916;27;20070;-82
2023/01/14 08:49:26;;;;;;;5.07;1.05;;;;;;;12.10;49.70;98624.62;5323894;26;20104;-82
2023/01/14 08:51:55;;;;;;;2.33;1.02;;;;;;;12.49;49.22;98619.59;5324055;26;20402;-82
2023/01/14 08:54:22;;;;;;;5.45;0.90;;;;;;;12.37;49.22;98627.88;5322586;27;20069;-82
2023/01/14 08:56:49;;;;;;;3.28;1.00;;;;;;;12.47;49.66;98628.34;5322954;27;20072;-82
2023/01/14 08:59:16;;;;;;;4.80;0.80;;;;;;;12.87;48.78;98633.53;5324215;26;20414;-82
2023/01/14 09:01:43;;;;;;;5.55;0.85;;;;;;;13.09;47.88;98628.28;5323673;26;20470;-82
2023/01/14 09:04:26;;;;;;;4.20;1.00;;;;;;;12.92;48.04;98620.38;5324132;26;20071;-82
2023/01/14 09:18:01;;;;;;;1.90;0.80;;;;;;;12.72;47.63;98645.37;5324255;26;20065;-82
2023/01/14 09:20:39;;;;;;;3.75;1.05;;;;;;;13.50;46.53;98648.94;5322549;27;20110;-82
2023/01/14 09:23:07;;;;;;;5.57;1.15;;;;;;;13.24;45.61;98650.09;5323626;26;20052;-82
2023/01/14 09:25:36;;;;;;;4.90;0.90;;;;;;;13.05;46.26;98647.44;5322796;27;20135;-82
2023/01/14 09:28:03;;;;;;;5.18;1.05;;;;;;;12.39;47.99;98650.19;5322685;27;20441;-82
2023/01/14 09:30:30;;;;;;;7.12;1.20;;;;;;;12.28;48.64;98660.13;5323499;27;20057;-82
2023/01/14 09:32:58;;;;;;;4.18;0.80;;;;;;;12.71;47.65;98659.22;5304090;27;20072;-82
2023/01/14 09:35:25;;;;;;;5.50;1.10;;;;;;;13.18;46.10;98656.34;5323887;26;20056;-82
2023/01/14 09:37:52;;;;;;;2.97;0.65;;;;;;;12.79;46.91;98656.31;5323617;26;20057;-82
2023/01/14 09:40:19;;;;;;;2.47;0.70;;;;;;;12.95;46.14;98654.75;5323983;26;20458;-81
2023/01/14 09:42:48;;;;;;;3.75;0.90;;;;;;;13.14;45.67;98657.41;5323862;26;20323;-82
2023/01/14 09:45:22;;;;;;;5.45;1.10;;;;;;;12.91;46.18;98647.19;5322201;27;20133;-82
2023/01/14 09:47:49;;;;;;;3.08;0.73;;;;;;;13.03;45.34;98642.31;5323991;26;20073;-82
2023/01/14 09:50:24;;;;;;;3.45;0.90;;;;;;;13.59;44.28;98638.16;5323449;26;20113;-82
2023/01/14 09:53:12;;;;;;;3.58;0.80;;;;;;;13.68;44.43;98642.91;5323801;26;20048;-81
2023/01/14 09:56:16;;;;;;;2.30;0.57;;;;;;;12.87;44.72;98636.13;5323968;26;20103;-81
2023/01/14 09:58:52;;;;;;;4.75;1.77;;;;;;;13.39;43.01;98639.03;5319924;27;20191;-82
2023/01/14 10:01:27;;;;;;;3.78;1.23;;;;;;;13.45;43.15;98625.00;5323296;27;20052;-81
2023/01/14 10:04:13;;;;;;;3.37;0.90;;;;;;;13.48;44.39;98636.03;5323220;27;20052;-82
2023/01/14 10:06:42;;;;;;;3.20;0.93;;;;;;;13.97;42.82;98631.19;5324481;27;20091;-82
2023/01/14 10:09:16;;;;;;;4.57;1.00;;;;;;;14.19;42.43;98631.84;5323499;27;20123;-82
2023/01/14 10:11:44;;;;;;;2.12;0.77;;;;;;;13.66;42.90;98633.53;5322891;27;20064;-82
2023/01/14 10:14:16;;;;;;;6.25;1.20;;;;;;;14.50;41.73;98629.56;5324791;26;20391;-82
2023/01/14 10:16:45;;;;;;;3.90;0.82;;;;;;;15.01;39.46;98628.69;5324922;26;20060;-82
2023/01/14 10:19:24;;;;;;;5.85;0.98;;;;;;;15.67;37.55;98622.66;5324371;26;20076;-82
2023/01/14 10:22:19;;;;;;;2.95;0.90;;;;;;;15.65;38.40;98630.53;5324687;26;20053;-82
2023/01/14 10:24:45;;;;;;;5.93;1.25;;;;;;;15.59;37.68;98617.81;5323439;27;20420;-82
2023/01/14 10:27:17;;;;;;;3.05;0.85;;;;;;;15.16;37.43;98616.66;5324348;26;20459;-82
2023/01/14 10:29:46;;;;;;;5.22;1.10;;;;;;;15.46;37.44;98619.41;5324722;26;20065;-82
2023/01/14 10:32:15;;;;;;;2.58;0.70;;;;;;;16.15;36.02;98613.87;5321852;26;20116;-81
2023/01/14 10:34:47;;;;;;;3.62;0.70;;;;;;;15.71;36.80;98606.78;5324449;26;20044;-82
2023/01/14 10:37:14;;;;;;;4.28;0.90;;;;;;;15.41;36.11;98611.00;5324855;26;20060;-81
2023/01/14 10:39:50;;;;;;;3.17;0.82;;;;;;;15.12;35.28;98589.16;5324251;26;20087;-82
2023/01/14 10:42:26;;;;;;;5.10;0.75;;;;;;;15.53;35.58;98603.41;5324598;26;20328;-82
2023/01/14 10:44:54;;;;;;;3.70;1.15;;;;;;;15.28;36.15;98601.25;5324655;26;20045;-81
2023/01/14 10:47:21;;;;;;;3.53;0.75;;;;;;;15.05;36.51;98604.22;5324251;26;20117;-82
2023/01/14 10:50:00;;;;;;;4.65;0.95;;;;;;;15.86;34.69;98603.34;5324584;26;20064;-81
2023/01/14 10:52:29;;;;;;;4.57;0.88;;;;;;;15.34;36.70;98606.16;5323052;27;20102;-81
2023/01/14 10:54:59;;;;;;;3.17;1.27;;;;;;;15.94;35.01;98602.91;5324065;26;20403;-82
2023/01/14 10:57:29;;;;;;;4.53;0.80;;;;;;;16.43;33.80;98598.37;5324622;26;20096;-82
2023/01/14 10:59:57;;;;;;;6.75;1.02;;;;;;;15.86;34.50;98598.16;5323046;27;20114;-81
2023/01/14 11:02:33;;;;;;;4.10;1.10;;;;;;;16.59;34.06;98597.47;5324217;26;20117;-82
2023/01/14 11:05:01;;;;;;;3.05;1.00;;;;;;;16.30;33.44;98589.59;5323280;27;20399;-82
2023/01/14 11:07:38;;;;;;;3.67;0.85;;;;;;;15.84;34.46;98599.13;5324324;26;20057;-82
2023/01/14 11:10:21;;;;;;;3.33;0.77;;;;;;;14.75;36.18;98588.44;5324410;26;20064;-81
2023/01/14 11:12:48;;;;;;;1.87;0.52;;;;;;;15.95;35.08;98580.31;5324510;26;20053;-82
2023/01/14 11:15:37;;;;;;;2.67;0.70;;;;;;;15.37;34.90;98573.09;5324175;26;20087;-82
2023/01/14 11:18:30;;;;;;;3.28;0.85;;;;;;;15.05;35.78;98562.66;5324513;26;20396;-82
2023/01/14 11:21:01;;;;;;;2.72;0.68;;;;;;;14.99;35.40;98579.41;5315489;27;20110;-82
2023/01/14 11:23:32;;;;;;;3.90;0.90;;;;;;;14.37;36.52;98574.78;5324204;26;20065;-82
2023/01/14 11:26:08;;;;;;;3.33;1.20;;;;;;;15.00;35.81;98575.91;5324672;26;20308;-82
2023/01/14 11:28:46;;;;;;;4.87;0.90;;;;;;;15.05;34.82;98573.03;5322760;27;20065;-82
2023/01/14 11:31:14;;;;;;;4.15;0.90;;;;;;;15.48;34.95;98576.78;5324254;26;20064;-82
2023/01/14 11:33:51;;;;;;;3.37;0.80;;;;;;;13.88;37.11;98559.00;5324244;26;20429;-82
2023/01/14 11:36:24;;;;;;;5.28;1.30;;;;;;;13.85;38.61;98556.56;5322815;27;20052;-82
2023/01/14 11:38:53;;;;;;;4.15;0.90;;;;;;;14.51;37.13;98559.38;5324470;26;20116;-82
2023/01/14 11:41:32;;;;;;;6.78;1.10;;;;;;;14.21;36.87;98563.47;5322911;27;20056;-81
2023/01/14 11:44:00;;;;;;;4.18;0.68;;;;;;;14.39;37.44;98562.56;5323848;26;20060;-82
2023/01/14 11:46:27;;;;;;;5.37;1.05;;;;;;;13.86;37.06;98551.28;5324387;27;20087;-81
2023/01/14 11:49:16;;;;;;;6.28;1.10;;;;;;;14.10;37.22;98562.22;5324431;26;20423;-82
2023/01/14 11:52:04;;;;;;;3.87;0.90;;;;;;;15.08;36.32;98561.63;5323992;26;20410;-82
2023/01/14 11:54:37;;;;;;;3.28;0.85;;;;;;;14.89;36.38;98566.97;5324489;27;20060;-82
2023/01/14 11:57:05;;;;;;;5.25;1.20;;;;;;;15.56;34.98;98574.63;5324120;26;20102;-82
2023/01/14 11:59:36;;;;;;;4.12;0.90;;;;;;;14.68;35.87;98561.13;5324408;26;20052;-82
2023/01/14 12:02:28;;;;;;;3.80;0.98;;;;;;;14.48;35.37;98553.50;5324439;26;20134;-82
2023/01/14 12:05:05;;;;;;;3.12;0.88;;;;;;;14.48;36.36;98556.94;5323893;26;20049;-82
2023/01/14 12:07:36;;;;;;;4.37;1.10;;;;;;;15.36;35.23;98548.84;5323063;27;20045;-81
2023/01/14 12:10:28;;;;;;;6.60;1.73;;;;;;;15.62;34.69;98553.50;5322805;27;20091;-81
2023/01/14 12:18:54;;;;;;;2.75;0.90;;;;;;;15.89;33.70;98550.28;5324020;26;20045;-82
2023/01/14 12:21:27;;;;;;;2.75;0.93;;;;;;;16.40;32.62;98543.88;5323882;27;20075;-82
2023/01/14 12:24:08;;;;;;;3.60;1.12;;;;;;;15.96;33.66;98540.38;5324370;26;20065;-82
2023/01/14 12:26:38;;;;;;;6.07;1.10;;;;;;;16.64;32.56;98538.97;5322671;27;20053;-82
2023/01/14 12:29:10;;;;;;;4.93;1.02;;;;;;;16.28;32.92;98541.97;5322944;27;20174;-82